sensor_id;sensor_type;location;lat;lon;timestamp;P1;durP1;ratioP1;P2;durP2;ratioP2
70337;SDS011;57757;53.198;19.646;2024-01-16T00:01:08;6.70;;;1.30;;
70337;SDS011;57757;53.198;19.646;2024-01-16T00:03:44;8.50;;;1.00;;
70337;SDS011;57757;53.198;19.646;2024-01-16T00:06:11;4.60;;;0.80;;
70337;SDS011;57757;53.198;19.646;2024-01-16T00:08:40;10.00;;;1.70;;
70337;SDS011;57757;53.198;19.646;2024-01-16T00:11:08;8.10;;;1.60;;
70337;SDS011;57757;53.198;19.646;2024-01-16T00:13:35;8.20;;;1.60;;
70337;SDS011;57757;53.198;19.646;2024-01-16T00:16:03;10.20;;;1.60;;
70337;SDS011;57757;53.198;19.646;2024-01-16T00:18:31;10.20;;;2.10;;
70337;SDS011;57757;53.198;19.646;2024-01-16T00:21:00;9.50;;;1.50;;
70337;SDS011;57757;53.198;19.646;2024-01-16T00:23:29;8.80;;;1.90;;
70337;SDS011;57757;53.198;19.646;2024-01-16T00:26:00;16.20;;;2.60;;
70337;SDS011;57757;53.198;19.646;2024-01-16T00:28:27;20.30;;;3.00;;
70337;SDS011;57757;53.198;19.646;2024-01-16T00:30:55;9.50;;;2.00;;
70337;SDS011;57757;53.198;19.646;2024-01-16T00:33:23;15.40;;;2.90;;
70337;SDS011;57757;53.198;19.646;2024-01-16T00:35:51;21.90;;;3.80;;
70337;SDS011;57757;53.198;19.646;2024-01-16T00:38:18;10.60;;;2.40;;
70337;SDS011;57757;53.198;19.646;2024-01-16T00:40:46;9.30;;;1.60;;
70337;SDS011;57757;53.198;19.646;2024-01-16T00:43:13;5.40;;;1.00;;
70337;SDS011;57757;53.198;19.646;2024-01-16T00:45:41;9.20;;;2.40;;
70337;SDS011;57757;53.198;19.646;2024-01-16T00:48:09;5.50;;;1.40;;
70337;SDS011;57757;53.198;19.646;2024-01-16T00:50:41;5.80;;;0.90;;
70337;SDS011;57757;53.198;19.646;2024-01-16T00:53:09;5.40;;;1.00;;
70337;SDS011;57757;53.198;19.646;2024-01-16T00:55:36;7.10;;;1.60;;
70337;SDS011;57757;53.198;19.646;2024-01-16T00:58:04;8.50;;;2.30;;
70337;SDS011;57757;53.198;19.646;2024-01-16T01:00:31;9.20;;;2.20;;
70337;SDS011;57757;53.198;19.646;2024-01-16T01:03:01;8.50;;;2.00;;
70337;SDS011;57757;53.198;19.646;2024-01-16T01:05:28;6.70;;;1.80;;
70337;SDS011;57757;53.198;19.646;2024-01-16T01:07:57;7.70;;;1.50;;
70337;SDS011;57757;53.198;19.646;2024-01-16T01:10:25;6.70;;;1.30;;
70337;SDS011;57757;53.198;19.646;2024-01-16T01:12:52;5.70;;;1.00;;
70337;SDS011;57757;53.198;19.646;2024-01-16T01:15:20;9.20;;;1.50;;
70337;SDS011;57757;53.198;19.646;2024-01-16T01:17:48;7.20;;;1.60;;
70337;SDS011;57757;53.198;19.646;2024-01-16T01:20:17;5.90;;;1.40;;
70337;SDS011;57757;53.198;19.646;2024-01-16T01:22:46;7.10;;;1.50;;
70337;SDS011;57757;53.198;19.646;2024-01-16T01:25:14;9.70;;;2.50;;
70337;SDS011;57757;53.198;19.646;2024-01-16T01:27:43;7.80;;;1.50;;
70337;SDS011;57757;53.198;19.646;2024-01-16T01:30:10;7.80;;;1.30;;
70337;SDS011;57757;53.198;19.646;2024-01-16T01:32:39;7.30;;;1.70;;
70337;SDS011;57757;53.198;19.646;2024-01-16T01:35:07;10.10;;;2.20;;
70337;SDS011;57757;53.198;19.646;2024-01-16T01:37:34;7.00;;;1.90;;
70337;SDS011;57757;53.198;19.646;2024-01-16T01:40:02;7.50;;;0.90;;
70337;SDS011;57757;53.198;19.646;2024-01-16T01:42:30;6.70;;;1.40;;
70337;SDS011;57757;53.198;19.646;2024-01-16T01:44:58;7.40;;;1.40;;
70337;SDS011;57757;53.198;19.646;2024-01-16T01:47:25;5.60;;;1.10;;
70337;SDS011;57757;53.198;19.646;2024-01-16T01:49:53;5.70;;;1.20;;
70337;SDS011;57757;53.198;19.646;2024-01-16T01:52:21;7.10;;;1.50;;
70337;SDS011;57757;53.198;19.646;2024-01-16T01:54:49;10.50;;;2.10;;
70337;SDS011;57757;53.198;19.646;2024-01-16T01:57:19;7.60;;;2.00;;
70337;SDS011;57757;53.198;19.646;2024-01-16T01:59:47;9.40;;;3.50;;
70337;SDS011;57757;53.198;19.646;2024-01-16T02:02:14;4.10;;;0.90;;
70337;SDS011;57757;53.198;19.646;2024-01-16T02:04:43;4.90;;;1.00;;
70337;SDS011;57757;53.198;19.646;2024-01-16T02:07:14;9.10;;;1.40;;
70337;SDS011;57757;53.198;19.646;2024-01-16T02:09:43;5.10;;;0.70;;
70337;SDS011;57757;53.198;19.646;2024-01-16T02:12:11;10.30;;;1.60;;
70337;SDS011;57757;53.198;19.646;2024-01-16T02:14:39;7.20;;;1.40;;
70337;SDS011;57757;53.198;19.646;2024-01-16T02:17:06;6.40;;;1.10;;
70337;SDS011;57757;53.198;19.646;2024-01-16T02:19:34;4.90;;;1.00;;
70337;SDS011;57757;53.198;19.646;2024-01-16T02:22:03;6.50;;;0.90;;
70337;SDS011;57757;53.198;19.646;2024-01-16T02:24:35;6.00;;;1.00;;
70337;SDS011;57757;53.198;19.646;2024-01-16T02:27:02;5.20;;;0.90;;
70337;SDS011;57757;53.198;19.646;2024-01-16T02:29:30;6.10;;;0.90;;
70337;SDS011;57757;53.198;19.646;2024-01-16T02:31:57;4.10;;;0.60;;
70337;SDS011;57757;53.198;19.646;2024-01-16T02:34:25;5.70;;;0.80;;
70337;SDS011;57757;53.198;19.646;2024-01-16T02:36:53;6.30;;;1.40;;
70337;SDS011;57757;53.198;19.646;2024-01-16T02:39:20;5.50;;;1.00;;
70337;SDS011;57757;53.198;19.646;2024-01-16T02:41:48;7.70;;;1.50;;
70337;SDS011;57757;53.198;19.646;2024-01-16T02:44:16;7.20;;;1.70;;
70337;SDS011;57757;53.198;19.646;2024-01-16T02:46:43;6.30;;;1.30;;
70337;SDS011;57757;53.198;19.646;2024-01-16T02:49:11;6.50;;;1.10;;
70337;SDS011;57757;53.198;19.646;2024-01-16T02:51:39;7.00;;;1.00;;
70337;SDS011;57757;53.198;19.646;2024-01-16T02:54:07;6.30;;;1.10;;
70337;SDS011;57757;53.198;19.646;2024-01-16T02:56:35;5.50;;;0.80;;
70337;SDS011;57757;53.198;19.646;2024-01-16T02:59:02;6.70;;;0.80;;
70337;SDS011;57757;53.198;19.646;2024-01-16T03:01:30;6.90;;;1.80;;
70337;SDS011;57757;53.198;19.646;2024-01-16T03:03:58;4.80;;;1.00;;
70337;SDS011;57757;53.198;19.646;2024-01-16T03:06:25;5.90;;;1.10;;
70337;SDS011;57757;53.198;19.646;2024-01-16T03:08:53;7.50;;;2.10;;
70337;SDS011;57757;53.198;19.646;2024-01-16T03:11:21;6.90;;;1.80;;
70337;SDS011;57757;53.198;19.646;2024-01-16T03:13:49;7.50;;;1.70;;
70337;SDS011;57757;53.198;19.646;2024-01-16T03:16:21;6.20;;;1.60;;
70337;SDS011;57757;53.198;19.646;2024-01-16T03:18:49;5.20;;;1.10;;
70337;SDS011;57757;53.198;19.646;2024-01-16T03:21:16;7.10;;;1.00;;
70337;SDS011;57757;53.198;19.646;2024-01-16T03:23:45;9.60;;;2.30;;
70337;SDS011;57757;53.198;19.646;2024-01-16T03:26:13;7.00;;;1.80;;
70337;SDS011;57757;53.198;19.646;2024-01-16T03:28:41;7.10;;;1.50;;
70337;SDS011;57757;53.198;19.646;2024-01-16T03:31:09;5.00;;;0.70;;
70337;SDS011;57757;53.198;19.646;2024-01-16T03:33:37;5.50;;;1.30;;
70337;SDS011;57757;53.198;19.646;2024-01-16T03:36:11;13.10;;;2.10;;
70337;SDS011;57757;53.198;19.646;2024-01-16T03:38:40;7.40;;;1.30;;
70337;SDS011;57757;53.198;19.646;2024-01-16T03:41:08;9.10;;;2.00;;
70337;SDS011;57757;53.198;19.646;2024-01-16T03:43:36;8.30;;;1.60;;
70337;SDS011;57757;53.198;19.646;2024-01-16T03:46:03;4.90;;;1.00;;
70337;SDS011;57757;53.198;19.646;2024-01-16T03:48:31;5.40;;;1.10;;
70337;SDS011;57757;53.198;19.646;2024-01-16T03:50:59;5.50;;;0.80;;
70337;SDS011;57757;53.198;19.646;2024-01-16T03:53:26;11.40;;;1.70;;
70337;SDS011;57757;53.198;19.646;2024-01-16T03:55:54;7.10;;;1.30;;
70337;SDS011;57757;53.198;19.646;2024-01-16T03:58:21;5.80;;;1.00;;
70337;SDS011;57757;53.198;19.646;2024-01-16T04:00:50;10.90;;;2.80;;
70337;SDS011;57757;53.198;19.646;2024-01-16T04:03:18;8.30;;;2.20;;
70337;SDS011;57757;53.198;19.646;2024-01-16T04:05:46;13.90;;;5.10;;
70337;SDS011;57757;53.198;19.646;2024-01-16T04:08:13;42.70;;;11.70;;
70337;SDS011;57757;53.198;19.646;2024-01-16T04:10:41;27.80;;;10.90;;
70337;SDS011;57757;53.198;19.646;2024-01-16T04:13:09;38.20;;;15.30;;
70337;SDS011;57757;53.198;19.646;2024-01-16T04:15:40;28.10;;;10.30;;
70337;SDS011;57757;53.198;19.646;2024-01-16T04:18:07;32.70;;;9.50;;
70337;SDS011;57757;53.198;19.646;2024-01-16T04:20:35;11.90;;;3.50;;
70337;SDS011;57757;53.198;19.646;2024-01-16T04:23:03;21.70;;;7.70;;
70337;SDS011;57757;53.198;19.646;2024-01-16T04:25:31;19.40;;;7.30;;
70337;SDS011;57757;53.198;19.646;2024-01-16T04:27:59;16.10;;;6.10;;
70337;SDS011;57757;53.198;19.646;2024-01-16T04:30:29;9.60;;;2.70;;
70337;SDS011;57757;53.198;19.646;2024-01-16T04:32:57;20.40;;;7.60;;
70337;SDS011;57757;53.198;19.646;2024-01-16T04:35:25;25.00;;;8.40;;
70337;SDS011;57757;53.198;19.646;2024-01-16T04:37:53;14.40;;;4.80;;
70337;SDS011;57757;53.198;19.646;2024-01-16T04:40:20;13.40;;;4.00;;
70337;SDS011;57757;53.198;19.646;2024-01-16T04:42:49;9.60;;;2.50;;
70337;SDS011;57757;53.198;19.646;2024-01-16T04:45:16;9.00;;;3.10;;
70337;SDS011;57757;53.198;19.646;2024-01-16T04:47:44;10.60;;;2.60;;
70337;SDS011;57757;53.198;19.646;2024-01-16T04:50:12;10.10;;;2.40;;
70337;SDS011;57757;53.198;19.646;2024-01-16T04:52:39;15.40;;;5.30;;
70337;SDS011;57757;53.198;19.646;2024-01-16T04:55:07;24.00;;;9.00;;
70337;SDS011;57757;53.198;19.646;2024-01-16T04:57:34;13.80;;;5.70;;
70337;SDS011;57757;53.198;19.646;2024-01-16T05:00:02;14.00;;;4.10;;
70337;SDS011;57757;53.198;19.646;2024-01-16T05:02:34;11.90;;;3.40;;
70337;SDS011;57757;53.198;19.646;2024-01-16T05:05:01;14.60;;;5.10;;
70337;SDS011;57757;53.198;19.646;2024-01-16T05:07:29;20.50;;;8.00;;
70337;SDS011;57757;53.198;19.646;2024-01-16T05:09:57;34.50;;;8.70;;
70337;SDS011;57757;53.198;19.646;2024-01-16T05:12:25;24.40;;;7.40;;
70337;SDS011;57757;53.198;19.646;2024-01-16T05:14:52;17.10;;;6.00;;
70337;SDS011;57757;53.198;19.646;2024-01-16T05:17:20;13.40;;;4.40;;
70337;SDS011;57757;53.198;19.646;2024-01-16T05:19:48;15.00;;;5.10;;
70337;SDS011;57757;53.198;19.646;2024-01-16T05:22:15;17.10;;;6.90;;
70337;SDS011;57757;53.198;19.646;2024-01-16T05:24:43;19.10;;;7.70;;
70337;SDS011;57757;53.198;19.646;2024-01-16T05:27:10;22.70;;;7.80;;
70337;SDS011;57757;53.198;19.646;2024-01-16T05:29:40;23.40;;;6.90;;
70337;SDS011;57757;53.198;19.646;2024-01-16T05:32:11;20.30;;;4.80;;
70337;SDS011;57757;53.198;19.646;2024-01-16T05:34:41;16.00;;;5.30;;
70337;SDS011;57757;53.198;19.646;2024-01-16T05:37:08;11.50;;;3.20;;
70337;SDS011;57757;53.198;19.646;2024-01-16T05:39:36;9.20;;;3.10;;
70337;SDS011;57757;53.198;19.646;2024-01-16T05:42:04;10.20;;;2.90;;
70337;SDS011;57757;53.198;19.646;2024-01-16T05:44:32;11.90;;;3.40;;
70337;SDS011;57757;53.198;19.646;2024-01-16T05:47:00;12.00;;;2.90;;
70337;SDS011;57757;53.198;19.646;2024-01-16T05:49:27;17.00;;;3.90;;
70337;SDS011;57757;53.198;19.646;2024-01-16T05:51:55;17.30;;;3.90;;
70337;SDS011;57757;53.198;19.646;2024-01-16T05:54:23;16.80;;;4.40;;
70337;SDS011;57757;53.198;19.646;2024-01-16T05:56:50;22.40;;;6.40;;
70337;SDS011;57757;53.198;19.646;2024-01-16T05:59:18;14.80;;;3.10;;
70337;SDS011;57757;53.198;19.646;2024-01-16T06:01:46;24.60;;;7.80;;
70337;SDS011;57757;53.198;19.646;2024-01-16T06:04:14;18.50;;;5.70;;
70337;SDS011;57757;53.198;19.646;2024-01-16T06:06:42;23.80;;;8.90;;
70337;SDS011;57757;53.198;19.646;2024-01-16T06:09:12;36.50;;;12.40;;
70337;SDS011;57757;53.198;19.646;2024-01-16T06:11:41;55.70;;;20.00;;
70337;SDS011;57757;53.198;19.646;2024-01-16T06:14:10;29.50;;;12.30;;
70337;SDS011;57757;53.198;19.646;2024-01-16T06:16:39;22.30;;;7.40;;
70337;SDS011;57757;53.198;19.646;2024-01-16T06:19:07;19.40;;;5.10;;
70337;SDS011;57757;53.198;19.646;2024-01-16T06:21:35;17.10;;;4.50;;
70337;SDS011;57757;53.198;19.646;2024-01-16T06:24:03;20.70;;;5.80;;
70337;SDS011;57757;53.198;19.646;2024-01-16T06:26:30;22.70;;;5.60;;
70337;SDS011;57757;53.198;19.646;2024-01-16T06:28:58;39.90;;;12.10;;
70337;SDS011;57757;53.198;19.646;2024-01-16T06:31:26;24.00;;;8.30;;
70337;SDS011;57757;53.198;19.646;2024-01-16T06:33:54;20.10;;;7.60;;
70337;SDS011;57757;53.198;19.646;2024-01-16T06:36:21;31.80;;;8.90;;
70337;SDS011;57757;53.198;19.646;2024-01-16T06:38:49;21.10;;;5.50;;
70337;SDS011;57757;53.198;19.646;2024-01-16T06:41:17;22.90;;;6.40;;
70337;SDS011;57757;53.198;19.646;2024-01-16T06:43:44;24.00;;;6.80;;
70337;SDS011;57757;53.198;19.646;2024-01-16T06:46:12;27.40;;;7.80;;
70337;SDS011;57757;53.198;19.646;2024-01-16T06:48:40;28.70;;;8.10;;
70337;SDS011;57757;53.198;19.646;2024-01-16T06:51:07;36.40;;;12.40;;
70337;SDS011;57757;53.198;19.646;2024-01-16T06:53:37;28.90;;;10.80;;
70337;SDS011;57757;53.198;19.646;2024-01-16T06:56:08;26.80;;;7.50;;
70337;SDS011;57757;53.198;19.646;2024-01-16T06:58:36;27.30;;;9.20;;
70337;SDS011;57757;53.198;19.646;2024-01-16T07:01:04;39.30;;;9.30;;
70337;SDS011;57757;53.198;19.646;2024-01-16T07:03:32;30.10;;;9.60;;
70337;SDS011;57757;53.198;19.646;2024-01-16T07:06:02;30.40;;;10.00;;
70337;SDS011;57757;53.198;19.646;2024-01-16T07:08:30;42.50;;;13.70;;
70337;SDS011;57757;53.198;19.646;2024-01-16T07:10:58;40.50;;;12.10;;
70337;SDS011;57757;53.198;19.646;2024-01-16T07:13:26;33.90;;;9.80;;
70337;SDS011;57757;53.198;19.646;2024-01-16T07:15:54;41.30;;;12.90;;
70337;SDS011;57757;53.198;19.646;2024-01-16T07:18:22;47.60;;;13.70;;
70337;SDS011;57757;53.198;19.646;2024-01-16T07:20:50;59.90;;;20.20;;
70337;SDS011;57757;53.198;19.646;2024-01-16T07:23:18;48.50;;;16.60;;
70337;SDS011;57757;53.198;19.646;2024-01-16T07:25:45;40.90;;;11.70;;
70337;SDS011;57757;53.198;19.646;2024-01-16T07:28:13;23.70;;;7.20;;
70337;SDS011;57757;53.198;19.646;2024-01-16T07:30:42;20.60;;;6.70;;
70337;SDS011;57757;53.198;19.646;2024-01-16T07:33:09;18.40;;;4.60;;
70337;SDS011;57757;53.198;19.646;2024-01-16T07:35:37;28.10;;;7.20;;
70337;SDS011;57757;53.198;19.646;2024-01-16T07:38:08;21.80;;;7.20;;
70337;SDS011;57757;53.198;19.646;2024-01-16T07:40:36;32.30;;;9.00;;
70337;SDS011;57757;53.198;19.646;2024-01-16T07:43:03;21.40;;;6.50;;
70337;SDS011;57757;53.198;19.646;2024-01-16T07:45:31;23.70;;;5.20;;
70337;SDS011;57757;53.198;19.646;2024-01-16T07:47:58;21.90;;;6.30;;
70337;SDS011;57757;53.198;19.646;2024-01-16T07:50:27;29.20;;;8.60;;
70337;SDS011;57757;53.198;19.646;2024-01-16T07:52:54;24.30;;;7.90;;
70337;SDS011;57757;53.198;19.646;2024-01-16T07:55:22;22.00;;;5.50;;
70337;SDS011;57757;53.198;19.646;2024-01-16T07:57:54;24.70;;;6.30;;
70337;SDS011;57757;53.198;19.646;2024-01-16T08:00:22;22.30;;;6.30;;
70337;SDS011;57757;53.198;19.646;2024-01-16T08:02:54;32.60;;;10.70;;
70337;SDS011;57757;53.198;19.646;2024-01-16T08:05:22;38.50;;;15.20;;
70337;SDS011;57757;53.198;19.646;2024-01-16T08:07:53;37.60;;;10.40;;
70337;SDS011;57757;53.198;19.646;2024-01-16T08:10:21;42.70;;;11.70;;
70337;SDS011;57757;53.198;19.646;2024-01-16T08:12:49;32.30;;;10.20;;
70337;SDS011;57757;53.198;19.646;2024-01-16T08:15:16;34.60;;;11.10;;
70337;SDS011;57757;53.198;19.646;2024-01-16T08:17:44;25.20;;;7.50;;
70337;SDS011;57757;53.198;19.646;2024-01-16T08:20:12;30.20;;;10.50;;
70337;SDS011;57757;53.198;19.646;2024-01-16T08:22:40;23.80;;;6.80;;
70337;SDS011;57757;53.198;19.646;2024-01-16T08:25:08;36.10;;;10.70;;
70337;SDS011;57757;53.198;19.646;2024-01-16T08:27:35;51.30;;;13.70;;
70337;SDS011;57757;53.198;19.646;2024-01-16T08:30:06;33.00;;;9.20;;
70337;SDS011;57757;53.198;19.646;2024-01-16T08:32:34;21.90;;;6.00;;
70337;SDS011;57757;53.198;19.646;2024-01-16T08:35:02;22.10;;;6.20;;
70337;SDS011;57757;53.198;19.646;2024-01-16T08:37:35;31.10;;;9.40;;
70337;SDS011;57757;53.198;19.646;2024-01-16T08:40:03;50.00;;;12.30;;
70337;SDS011;57757;53.198;19.646;2024-01-16T08:42:32;32.70;;;8.60;;
70337;SDS011;57757;53.198;19.646;2024-01-16T08:44:59;24.10;;;7.50;;
70337;SDS011;57757;53.198;19.646;2024-01-16T08:47:27;16.60;;;4.10;;
70337;SDS011;57757;53.198;19.646;2024-01-16T08:49:55;21.70;;;6.00;;
70337;SDS011;57757;53.198;19.646;2024-01-16T08:52:23;33.90;;;8.20;;
70337;SDS011;57757;53.198;19.646;2024-01-16T08:54:51;24.90;;;6.40;;
70337;SDS011;57757;53.198;19.646;2024-01-16T08:57:18;21.00;;;5.90;;
70337;SDS011;57757;53.198;19.646;2024-01-16T08:59:48;19.00;;;6.70;;
70337;SDS011;57757;53.198;19.646;2024-01-16T09:02:16;16.40;;;5.30;;
70337;SDS011;57757;53.198;19.646;2024-01-16T09:04:43;21.50;;;7.40;;
70337;SDS011;57757;53.198;19.646;2024-01-16T09:07:11;20.00;;;5.00;;
70337;SDS011;57757;53.198;19.646;2024-01-16T09:09:43;59.80;;;15.50;;
70337;SDS011;57757;53.198;19.646;2024-01-16T09:12:11;32.00;;;9.60;;
70337;SDS011;57757;53.198;19.646;2024-01-16T09:14:39;17.90;;;5.30;;
70337;SDS011;57757;53.198;19.646;2024-01-16T09:17:08;33.90;;;9.20;;
70337;SDS011;57757;53.198;19.646;2024-01-16T09:19:36;38.90;;;11.10;;
70337;SDS011;57757;53.198;19.646;2024-01-16T09:22:04;24.70;;;6.60;;
70337;SDS011;57757;53.198;19.646;2024-01-16T09:24:32;31.40;;;10.80;;
70337;SDS011;57757;53.198;19.646;2024-01-16T09:26:59;37.80;;;13.50;;
70337;SDS011;57757;53.198;19.646;2024-01-16T09:29:27;34.80;;;12.20;;
70337;SDS011;57757;53.198;19.646;2024-01-16T09:31:55;31.90;;;13.90;;
70337;SDS011;57757;53.198;19.646;2024-01-16T09:34:22;53.00;;;19.60;;
70337;SDS011;57757;53.198;19.646;2024-01-16T09:36:50;38.40;;;13.70;;
70337;SDS011;57757;53.198;19.646;2024-01-16T09:39:18;39.50;;;13.30;;
70337;SDS011;57757;53.198;19.646;2024-01-16T09:41:46;23.70;;;6.70;;
70337;SDS011;57757;53.198;19.646;2024-01-16T09:44:14;21.20;;;8.00;;
70337;SDS011;57757;53.198;19.646;2024-01-16T09:46:42;30.90;;;8.70;;
70337;SDS011;57757;53.198;19.646;2024-01-16T09:49:14;20.20;;;7.70;;
70337;SDS011;57757;53.198;19.646;2024-01-16T09:51:42;26.90;;;9.80;;
70337;SDS011;57757;53.198;19.646;2024-01-16T09:54:11;15.30;;;5.00;;
70337;SDS011;57757;53.198;19.646;2024-01-16T09:56:41;19.80;;;7.00;;
70337;SDS011;57757;53.198;19.646;2024-01-16T09:59:12;17.10;;;7.00;;
70337;SDS011;57757;53.198;19.646;2024-01-16T10:01:45;29.90;;;8.60;;
70337;SDS011;57757;53.198;19.646;2024-01-16T10:04:15;23.60;;;7.70;;
70337;SDS011;57757;53.198;19.646;2024-01-16T10:06:45;13.80;;;5.10;;
70337;SDS011;57757;53.198;19.646;2024-01-16T10:09:16;15.80;;;5.50;;
70337;SDS011;57757;53.198;19.646;2024-01-16T10:11:43;14.50;;;4.50;;
70337;SDS011;57757;53.198;19.646;2024-01-16T10:14:12;17.40;;;4.50;;
70337;SDS011;57757;53.198;19.646;2024-01-16T10:19:51;27.20;;;9.50;;
70337;SDS011;57757;53.198;19.646;2024-01-16T10:22:21;14.10;;;4.30;;
70337;SDS011;57757;53.198;19.646;2024-01-16T10:27:40;37.80;;;12.50;;
70337;SDS011;57757;53.198;19.646;2024-01-16T10:30:08;41.20;;;13.70;;
70337;SDS011;57757;53.198;19.646;2024-01-16T10:32:38;23.20;;;9.00;;
70337;SDS011;57757;53.198;19.646;2024-01-16T10:35:08;23.10;;;6.80;;
70337;SDS011;57757;53.198;19.646;2024-01-16T10:40:20;31.90;;;10.70;;
70337;SDS011;57757;53.198;19.646;2024-01-16T10:42:57;42.40;;;14.70;;
70337;SDS011;57757;53.198;19.646;2024-01-16T10:45:28;17.10;;;5.90;;
70337;SDS011;57757;53.198;19.646;2024-01-16T10:50:43;29.50;;;7.10;;
70337;SDS011;57757;53.198;19.646;2024-01-16T10:53:13;30.90;;;12.50;;
70337;SDS011;57757;53.198;19.646;2024-01-16T10:55:49;15.20;;;6.50;;
70337;SDS011;57757;53.198;19.646;2024-01-16T10:58:24;15.60;;;3.80;;
70337;SDS011;57757;53.198;19.646;2024-01-16T11:00:53;16.40;;;4.80;;
70337;SDS011;57757;53.198;19.646;2024-01-16T11:06:07;16.00;;;5.20;;
70337;SDS011;57757;53.198;19.646;2024-01-16T11:08:36;17.60;;;5.50;;
70337;SDS011;57757;53.198;19.646;2024-01-16T11:11:05;13.40;;;3.40;;
70337;SDS011;57757;53.198;19.646;2024-01-16T11:13:36;16.40;;;4.50;;
70337;SDS011;57757;53.198;19.646;2024-01-16T11:16:05;9.90;;;3.60;;
70337;SDS011;57757;53.198;19.646;2024-01-16T11:18:35;15.90;;;5.80;;
70337;SDS011;57757;53.198;19.646;2024-01-16T11:21:05;18.40;;;5.50;;
70337;SDS011;57757;53.198;19.646;2024-01-16T11:23:44;16.30;;;6.80;;
70337;SDS011;57757;53.198;19.646;2024-01-16T11:31:55;21.10;;;6.90;;
70337;SDS011;57757;53.198;19.646;2024-01-16T11:37:23;16.60;;;5.90;;
70337;SDS011;57757;53.198;19.646;2024-01-16T11:40:13;84.50;;;22.90;;
70337;SDS011;57757;53.198;19.646;2024-01-16T11:42:44;51.20;;;17.00;;
70337;SDS011;57757;53.198;19.646;2024-01-16T11:50:44;26.20;;;7.60;;
70337;SDS011;57757;53.198;19.646;2024-01-16T11:59:01;83.70;;;29.20;;
70337;SDS011;57757;53.198;19.646;2024-01-16T12:01:50;63.20;;;22.40;;
70337;SDS011;57757;53.198;19.646;2024-01-16T12:04:20;46.40;;;18.80;;
70337;SDS011;57757;53.198;19.646;2024-01-16T12:09:32;44.00;;;15.50;;
70337;SDS011;57757;53.198;19.646;2024-01-16T12:12:01;38.90;;;12.90;;
70337;SDS011;57757;53.198;19.646;2024-01-16T12:14:30;44.70;;;18.00;;
70337;SDS011;57757;53.198;19.646;2024-01-16T12:19:43;38.70;;;14.80;;
70337;SDS011;57757;53.198;19.646;2024-01-16T12:22:15;40.10;;;16.00;;
70337;SDS011;57757;53.198;19.646;2024-01-16T12:24:45;17.60;;;7.80;;
70337;SDS011;57757;53.198;19.646;2024-01-16T12:27:13;19.80;;;7.80;;
70337;SDS011;57757;53.198;19.646;2024-01-16T12:29:41;17.00;;;7.30;;
70337;SDS011;57757;53.198;19.646;2024-01-16T12:32:10;27.70;;;12.40;;
70337;SDS011;57757;53.198;19.646;2024-01-16T12:34:47;34.60;;;13.70;;
70337;SDS011;57757;53.198;19.646;2024-01-16T12:37:16;33.90;;;12.20;;
70337;SDS011;57757;53.198;19.646;2024-01-16T12:39:44;46.20;;;18.30;;
70337;SDS011;57757;53.198;19.646;2024-01-16T12:42:12;57.30;;;20.90;;
70337;SDS011;57757;53.198;19.646;2024-01-16T12:44:40;55.70;;;21.40;;
70337;SDS011;57757;53.198;19.646;2024-01-16T12:47:08;30.40;;;10.90;;
70337;SDS011;57757;53.198;19.646;2024-01-16T12:49:42;23.20;;;7.50;;
70337;SDS011;57757;53.198;19.646;2024-01-16T12:54:58;23.10;;;7.20;;
70337;SDS011;57757;53.198;19.646;2024-01-16T12:57:32;12.90;;;3.90;;
70337;SDS011;57757;53.198;19.646;2024-01-16T13:00:00;38.30;;;12.20;;
70337;SDS011;57757;53.198;19.646;2024-01-16T13:02:31;35.90;;;11.30;;
70337;SDS011;57757;53.198;19.646;2024-01-16T13:05:00;27.90;;;9.30;;
70337;SDS011;57757;53.198;19.646;2024-01-16T13:07:31;31.90;;;9.90;;
70337;SDS011;57757;53.198;19.646;2024-01-16T13:12:36;47.90;;;14.00;;
70337;SDS011;57757;53.198;19.646;2024-01-16T13:15:05;48.50;;;12.90;;
70337;SDS011;57757;53.198;19.646;2024-01-16T13:17:36;45.60;;;13.50;;
70337;SDS011;57757;53.198;19.646;2024-01-16T13:20:04;61.90;;;18.60;;
70337;SDS011;57757;53.198;19.646;2024-01-16T13:22:35;60.90;;;19.10;;
70337;SDS011;57757;53.198;19.646;2024-01-16T13:25:13;93.70;;;28.30;;
70337;SDS011;57757;53.198;19.646;2024-01-16T13:27:41;88.90;;;29.00;;
70337;SDS011;57757;53.198;19.646;2024-01-16T13:30:08;208.40;;;61.60;;
70337;SDS011;57757;53.198;19.646;2024-01-16T13:32:38;124.30;;;39.20;;
70337;SDS011;57757;53.198;19.646;2024-01-16T13:35:05;101.50;;;31.30;;
70337;SDS011;57757;53.198;19.646;2024-01-16T13:37:37;69.30;;;22.30;;
70337;SDS011;57757;53.198;19.646;2024-01-16T13:40:06;73.10;;;21.30;;
70337;SDS011;57757;53.198;19.646;2024-01-16T13:42:44;70.00;;;20.30;;
70337;SDS011;57757;53.198;19.646;2024-01-16T13:45:11;62.80;;;20.50;;
70337;SDS011;57757;53.198;19.646;2024-01-16T13:47:42;40.50;;;13.10;;
70337;SDS011;57757;53.198;19.646;2024-01-16T13:50:10;54.70;;;14.30;;
70337;SDS011;57757;53.198;19.646;2024-01-16T13:52:38;33.60;;;10.00;;
70337;SDS011;57757;53.198;19.646;2024-01-16T13:55:09;38.60;;;11.60;;
70337;SDS011;57757;53.198;19.646;2024-01-16T13:57:38;47.60;;;13.90;;
70337;SDS011;57757;53.198;19.646;2024-01-16T14:00:07;49.60;;;15.70;;
70337;SDS011;57757;53.198;19.646;2024-01-16T14:02:40;46.20;;;13.20;;
70337;SDS011;57757;53.198;19.646;2024-01-16T14:05:10;50.00;;;16.80;;
70337;SDS011;57757;53.198;19.646;2024-01-16T14:07:39;41.30;;;13.10;;
70337;SDS011;57757;53.198;19.646;2024-01-16T14:10:10;49.60;;;18.40;;
70337;SDS011;57757;53.198;19.646;2024-01-16T14:12:40;71.80;;;27.50;;
70337;SDS011;57757;53.198;19.646;2024-01-16T14:15:11;74.70;;;25.80;;
70337;SDS011;57757;53.198;19.646;2024-01-16T14:17:55;65.60;;;17.10;;
70337;SDS011;57757;53.198;19.646;2024-01-16T14:20:25;46.50;;;15.50;;
70337;SDS011;57757;53.198;19.646;2024-01-16T14:22:55;50.20;;;15.80;;
70337;SDS011;57757;53.198;19.646;2024-01-16T14:25:25;70.80;;;23.90;;
70337;SDS011;57757;53.198;19.646;2024-01-16T14:27:56;83.40;;;25.90;;
70337;SDS011;57757;53.198;19.646;2024-01-16T14:30:26;61.40;;;22.20;;
70337;SDS011;57757;53.198;19.646;2024-01-16T14:32:54;55.70;;;17.00;;
70337;SDS011;57757;53.198;19.646;2024-01-16T14:35:24;50.40;;;19.20;;
70337;SDS011;57757;53.198;19.646;2024-01-16T14:37:52;76.50;;;26.90;;
70337;SDS011;57757;53.198;19.646;2024-01-16T14:40:20;41.70;;;13.60;;
70337;SDS011;57757;53.198;19.646;2024-01-16T14:42:52;62.30;;;20.60;;
70337;SDS011;57757;53.198;19.646;2024-01-16T14:45:21;116.50;;;33.40;;
70337;SDS011;57757;53.198;19.646;2024-01-16T14:47:50;128.70;;;36.80;;
70337;SDS011;57757;53.198;19.646;2024-01-16T14:50:20;152.70;;;38.60;;
70337;SDS011;57757;53.198;19.646;2024-01-16T14:52:49;116.90;;;31.00;;
70337;SDS011;57757;53.198;19.646;2024-01-16T14:55:20;170.20;;;38.90;;
70337;SDS011;57757;53.198;19.646;2024-01-16T14:57:48;135.00;;;29.90;;
70337;SDS011;57757;53.198;19.646;2024-01-16T15:00:27;103.20;;;24.00;;
70337;SDS011;57757;53.198;19.646;2024-01-16T15:02:56;173.30;;;43.00;;
70337;SDS011;57757;53.198;19.646;2024-01-16T15:05:28;108.70;;;28.00;;
70337;SDS011;57757;53.198;19.646;2024-01-16T15:07:55;101.20;;;24.80;;
70337;SDS011;57757;53.198;19.646;2024-01-16T15:10:23;104.80;;;29.20;;
70337;SDS011;57757;53.198;19.646;2024-01-16T15:12:51;58.90;;;18.40;;
70337;SDS011;57757;53.198;19.646;2024-01-16T15:15:19;60.60;;;20.10;;